Terminal Aerodrome Forecast
Issued by NWS Buffalo, NY

Home | Current Version | Previous Version | Text Only | Print | Product List | Glossary On
Versions: 1 2 3 4 5 6 7 8 9 10 11 12 13 14 15 16 17 18 19 20 21 22 23 24 25 26 27
000
FTUS41 KBUF 262300 RRA
TAFROC
TAF
KROC 262341Z 2700/2724 02006KT 3SM -SN FEW015 OVC035
      TEMPO 2700/2704 2SM -SN OVC025
     FM270600 30006KT 6SM -SN OVC035
     FM270800 28006KT P6SM BKN025
     FM271700 28008KT P6SM SCT025=

USA.gov is the U.S. government's official web portal to all federal, state and local government web resources and services.